sensor_id;sensor_type;location;lat;lon;timestamp;pressure;altitude;pressure_sealevel;temperature
37452;BMP280;23314;51.114;6.900;2023-04-03T00:00:39;102583.72;;;2.26
37452;BMP280;23314;51.114;6.900;2023-04-03T00:03:05;102581.66;;;2.23
37452;BMP280;23314;51.114;6.900;2023-04-03T00:05:30;102585.16;;;2.18
37452;BMP280;23314;51.114;6.900;2023-04-03T00:07:56;102589.97;;;2.16
37452;BMP280;23314;51.114;6.900;2023-04-03T00:10:22;102588.50;;;2.10
37452;BMP280;23314;51.114;6.900;2023-04-03T00:12:47;102593.53;;;2.06
37452;BMP280;23314;51.114;6.900;2023-04-03T00:15:13;102589.94;;;2.02
37452;BMP280;23314;51.114;6.900;2023-04-03T00:17:38;102585.53;;;1.97
37452;BMP280;23314;51.114;6.900;2023-04-03T00:20:04;102579.28;;;1.93
37452;BMP280;23314;51.114;6.900;2023-04-03T00:22:30;102583.78;;;1.93
37452;BMP280;23314;51.114;6.900;2023-04-03T00:24:55;102584.38;;;1.90
37452;BMP280;23314;51.114;6.900;2023-04-03T00:27:21;102582.63;;;1.85
37452;BMP280;23314;51.114;6.900;2023-04-03T00:29:46;102589.22;;;1.83
37452;BMP280;23314;51.114;6.900;2023-04-03T00:32:12;102585.03;;;1.81
37452;BMP280;23314;51.114;6.900;2023-04-03T00:34:37;102582.72;;;1.80
37452;BMP280;23314;51.114;6.900;2023-04-03T00:37:03;102579.88;;;1.76
37452;BMP280;23314;51.114;6.900;2023-04-03T00:39:28;102582.78;;;1.75
37452;BMP280;23314;51.114;6.900;2023-04-03T00:41:53;102584.16;;;1.72
37452;BMP280;23314;51.114;6.900;2023-04-03T00:46:45;102582.41;;;1.68
37452;BMP280;23314;51.114;6.900;2023-04-03T00:49:11;102575.56;;;1.66
37452;BMP280;23314;51.114;6.900;2023-04-03T00:51:36;102584.81;;;1.64
37452;BMP280;23314;51.114;6.900;2023-04-03T00:54:05;102584.31;;;1.62
37452;BMP280;23314;51.114;6.900;2023-04-03T00:56:32;102579.63;;;1.59
37452;BMP280;23314;51.114;6.900;2023-04-03T00:59:02;102584.13;;;1.58
37452;BMP280;23314;51.114;6.900;2023-04-03T01:01:29;102577.59;;;1.56
37452;BMP280;23314;51.114;6.900;2023-04-03T01:03:56;102585.25;;;1.52
37452;BMP280;23314;51.114;6.900;2023-04-03T01:06:26;102581.06;;;1.51
37452;BMP280;23314;51.114;6.900;2023-04-03T01:08:53;102572.19;;;1.47
37452;BMP280;23314;51.114;6.900;2023-04-03T01:11:19;102583.00;;;1.45
37452;BMP280;23314;51.114;6.900;2023-04-03T01:13:45;102579.38;;;1.41
37452;BMP280;23314;51.114;6.900;2023-04-03T01:16:11;102576.53;;;1.38
37452;BMP280;23314;51.114;6.900;2023-04-03T01:18:39;102582.41;;;1.34
37452;BMP280;23314;51.114;6.900;2023-04-03T01:21:36;102580.34;;;1.31
37452;BMP280;23314;51.114;6.900;2023-04-03T01:24:27;102581.97;;;1.27
37452;BMP280;23314;51.114;6.900;2023-04-03T01:26:57;102578.84;;;1.25
37452;BMP280;23314;51.114;6.900;2023-04-03T01:29:22;102585.66;;;1.26
37452;BMP280;23314;51.114;6.900;2023-04-03T01:31:56;102580.97;;;1.23
37452;BMP280;23314;51.114;6.900;2023-04-03T01:34:23;102594.91;;;1.24
37452;BMP280;23314;51.114;6.900;2023-04-03T01:36:48;102589.16;;;1.22
37452;BMP280;23314;51.114;6.900;2023-04-03T01:39:14;102589.16;;;1.22
37452;BMP280;23314;51.114;6.900;2023-04-03T01:41:39;102589.22;;;1.16
37452;BMP280;23314;51.114;6.900;2023-04-03T01:44:05;102586.09;;;1.14
37452;BMP280;23314;51.114;6.900;2023-04-03T01:46:31;102584.81;;;1.12
37452;BMP280;23314;51.114;6.900;2023-04-03T01:48:56;102580.63;;;1.11
37452;BMP280;23314;51.114;6.900;2023-04-03T01:51:21;102584.03;;;1.11
37452;BMP280;23314;51.114;6.900;2023-04-03T01:53:47;102584.03;;;1.11
37452;BMP280;23314;51.114;6.900;2023-04-03T01:56:12;102590.16;;;1.07
37452;BMP280;23314;51.114;6.900;2023-04-03T01:58:37;102588.59;;;1.05
37452;BMP280;23314;51.114;6.900;2023-04-03T02:01:03;102586.75;;;1.06
37452;BMP280;23314;51.114;6.900;2023-04-03T02:03:29;102581.19;;;1.08
37452;BMP280;23314;51.114;6.900;2023-04-03T02:05:54;102590.94;;;1.07
37452;BMP280;23314;51.114;6.900;2023-04-03T02:08:20;102588.59;;;1.05
37452;BMP280;23314;51.114;6.900;2023-04-03T02:10:49;102583.63;;;1.04
37452;BMP280;23314;51.114;6.900;2023-04-03T02:13:15;102582.31;;;1.01
37452;BMP280;23314;51.114;6.900;2023-04-03T02:15:40;102584.19;;;1.01
37452;BMP280;23314;51.114;6.900;2023-04-03T02:18:06;102588.66;;;1.00
37452;BMP280;23314;51.114;6.900;2023-04-03T02:20:32;102589.44;;;1.01
37452;BMP280;23314;51.114;6.900;2023-04-03T02:22:58;102591.28;;;1.00
37452;BMP280;23314;51.114;6.900;2023-04-03T02:25:23;102588.66;;;1.00
37452;BMP280;23314;51.114;6.900;2023-04-03T02:27:48;102589.16;;;1.02
37452;BMP280;23314;51.114;6.900;2023-04-03T02:30:14;102584.44;;;0.99
37452;BMP280;23314;51.114;6.900;2023-04-03T02:32:40;102588.66;;;1.00
37452;BMP280;23314;51.114;6.900;2023-04-03T02:35:06;102591.28;;;1.00
37452;BMP280;23314;51.114;6.900;2023-04-03T02:37:32;102587.31;;;1.03
37452;BMP280;23314;51.114;6.900;2023-04-03T02:39:57;102594.63;;;1.06
37452;BMP280;23314;51.114;6.900;2023-04-03T02:42:23;102593.84;;;1.05
37452;BMP280;23314;51.114;6.900;2023-04-03T02:44:48;102603.59;;;1.05
37452;BMP280;23314;51.114;6.900;2023-04-03T02:47:13;102598.03;;;1.07
37452;BMP280;23314;51.114;6.900;2023-04-03T02:49:39;102599.91;;;1.06
37452;BMP280;23314;51.114;6.900;2023-04-03T02:52:04;102592.78;;;1.07
37452;BMP280;23314;51.114;6.900;2023-04-03T02:54:29;102597.78;;;1.08
37452;BMP280;23314;51.114;6.900;2023-04-03T02:56:56;102598.53;;;1.09
37452;BMP280;23314;51.114;6.900;2023-04-03T02:59:22;102601.94;;;1.09
37452;BMP280;23314;51.114;6.900;2023-04-03T03:01:47;102597.47;;;1.10
37452;BMP280;23314;51.114;6.900;2023-04-03T03:04:12;102589.59;;;1.10
37452;BMP280;23314;51.114;6.900;2023-04-03T03:06:38;102601.94;;;1.09
37452;BMP280;23314;51.114;6.900;2023-04-03T03:09:04;102596.66;;;1.09
37452;BMP280;23314;51.114;6.900;2023-04-03T03:11:31;102603.22;;;1.12
37452;BMP280;23314;51.114;6.900;2023-04-03T03:13:57;102599.31;;;1.09
37452;BMP280;23314;51.114;6.900;2023-04-03T03:16:22;102598.34;;;1.05
37452;BMP280;23314;51.114;6.900;2023-04-03T03:18:48;102606.22;;;1.05
37452;BMP280;23314;51.114;6.900;2023-04-03T03:21:13;102608.84;;;1.05
37452;BMP280;23314;51.114;6.900;2023-04-03T03:23:39;102602.28;;;1.02
37452;BMP280;23314;51.114;6.900;2023-04-03T03:26:07;102605.97;;;1.01
37452;BMP280;23314;51.114;6.900;2023-04-03T03:28:33;102597.59;;;0.99
37452;BMP280;23314;51.114;6.900;2023-04-03T03:30:59;102597.88;;;0.98
37452;BMP280;23314;51.114;6.900;2023-04-03T03:33:25;102601.78;;;1.00
37452;BMP280;23314;51.114;6.900;2023-04-03T03:35:52;102598.91;;;1.02
37452;BMP280;23314;51.114;6.900;2023-04-03T03:38:18;102591.78;;;1.02
37452;BMP280;23314;51.114;6.900;2023-04-03T03:40:43;102593.34;;;1.03
37452;BMP280;23314;51.114;6.900;2023-04-03T03:43:08;102597.84;;;1.03
37452;BMP280;23314;51.114;6.900;2023-04-03T03:45:34;102602.53;;;1.06
37452;BMP280;23314;51.114;6.900;2023-04-03T03:48:00;102597.53;;;1.04
37452;BMP280;23314;51.114;6.900;2023-04-03T03:50:25;102590.50;;;1.00
37452;BMP280;23314;51.114;6.900;2023-04-03T03:52:51;102588.94;;;0.99
37452;BMP280;23314;51.114;6.900;2023-04-03T03:55:16;102591.84;;;0.97
37452;BMP280;23314;51.114;6.900;2023-04-03T03:57:41;102592.63;;;0.98
37452;BMP280;23314;51.114;6.900;2023-04-03T04:00:07;102591.84;;;0.97
37452;BMP280;23314;51.114;6.900;2023-04-03T04:02:34;102590.78;;;0.98
37452;BMP280;23314;51.114;6.900;2023-04-03T04:04:59;102595.75;;;1.00
37452;BMP280;23314;51.114;6.900;2023-04-03T04:07:24;102596.81;;;0.99
37452;BMP280;23314;51.114;6.900;2023-04-03T04:09:53;102597.38;;;0.96
37452;BMP280;23314;51.114;6.900;2023-04-03T04:12:18;102601.38;;;0.93
37452;BMP280;23314;51.114;6.900;2023-04-03T04:14:44;102605.84;;;0.93
37452;BMP280;23314;51.114;6.900;2023-04-03T04:17:12;102602.69;;;0.90
37452;BMP280;23314;51.114;6.900;2023-04-03T04:19:37;102605.56;;;0.94
37452;BMP280;23314;51.114;6.900;2023-04-03T04:22:03;102612.38;;;0.95
37452;BMP280;23314;51.114;6.900;2023-04-03T04:24:28;102606.34;;;0.95
37452;BMP280;23314;51.114;6.900;2023-04-03T04:26:53;102613.09;;;1.01
37452;BMP280;23314;51.114;6.900;2023-04-03T04:29:19;102619.06;;;1.07
37452;BMP280;23314;51.114;6.900;2023-04-03T04:31:44;102610.63;;;1.10
37452;BMP280;23314;51.114;6.900;2023-04-03T04:34:09;102611.63;;;1.14
37452;BMP280;23314;51.114;6.900;2023-04-03T04:36:35;102613.69;;;1.17
37452;BMP280;23314;51.114;6.900;2023-04-03T04:39:00;102608.34;;;1.22
37452;BMP280;23314;51.114;6.900;2023-04-03T04:41:25;102613.03;;;1.25
37452;BMP280;23314;51.114;6.900;2023-04-03T04:43:51;102616.94;;;1.28
37452;BMP280;23314;51.114;6.900;2023-04-03T04:46:17;102619.28;;;1.29
37452;BMP280;23314;51.114;6.900;2023-04-03T04:48:43;102617.16;;;1.31
37452;BMP280;23314;51.114;6.900;2023-04-03T04:51:08;102626.09;;;1.30
37452;BMP280;23314;51.114;6.900;2023-04-03T04:53:34;102624.47;;;1.34
37452;BMP280;23314;51.114;6.900;2023-04-03T04:55:59;102632.38;;;1.34
37452;BMP280;23314;51.114;6.900;2023-04-03T04:58:25;102637.53;;;1.40
37452;BMP280;23314;51.114;6.900;2023-04-03T05:01:16;102629.34;;;1.41
37452;BMP280;23314;51.114;6.900;2023-04-03T05:03:41;102641.94;;;1.44
37452;BMP280;23314;51.114;6.900;2023-04-03T05:06:06;102630.84;;;1.47
37452;BMP280;23314;51.114;6.900;2023-04-03T05:08:32;102637.66;;;1.48
37452;BMP280;23314;51.114;6.900;2023-04-03T05:10:57;102642.34;;;1.51
37452;BMP280;23314;51.114;6.900;2023-04-03T05:13:23;102640.50;;;1.52
37452;BMP280;23314;51.114;6.900;2023-04-03T05:15:48;102652.59;;;1.53
37452;BMP280;23314;51.114;6.900;2023-04-03T05:18:13;102648.13;;;1.54
37452;BMP280;23314;51.114;6.900;2023-04-03T05:20:39;102653.38;;;1.54
37452;BMP280;23314;51.114;6.900;2023-04-03T05:23:05;102651.03;;;1.52
37452;BMP280;23314;51.114;6.900;2023-04-03T05:25:31;102651.31;;;1.50
37452;BMP280;23314;51.114;6.900;2023-04-03T05:27:56;102656.28;;;1.52
37452;BMP280;23314;51.114;6.900;2023-04-03T05:30:22;102651.03;;;1.52
37452;BMP280;23314;51.114;6.900;2023-04-03T05:32:47;102651.81;;;1.53
37452;BMP280;23314;51.114;6.900;2023-04-03T05:35:13;102655.41;;;1.57
37452;BMP280;23314;51.114;6.900;2023-04-03T05:37:39;102652.50;;;1.58
37452;BMP280;23314;51.114;6.900;2023-04-03T05:40:05;102660.09;;;1.60
37452;BMP280;23314;51.114;6.900;2023-04-03T05:42:30;102662.97;;;1.63
37452;BMP280;23314;51.114;6.900;2023-04-03T05:44:56;102667.38;;;1.68
37452;BMP280;23314;51.114;6.900;2023-04-03T05:47:21;102661.72;;;1.75
37452;BMP280;23314;51.114;6.900;2023-04-03T05:49:46;102666.91;;;1.80
37452;BMP280;23314;51.114;6.900;2023-04-03T05:52:26;102673.69;;;1.86
37452;BMP280;23314;51.114;6.900;2023-04-03T05:54:51;102681.94;;;1.93
37452;BMP280;23314;51.114;6.900;2023-04-03T05:57:17;102684.22;;;2.00
37452;BMP280;23314;51.114;6.900;2023-04-03T05:59:44;102693.59;;;2.06
37452;BMP280;23314;51.114;6.900;2023-04-03T06:02:14;102689.22;;;2.16
37452;BMP280;23314;51.114;6.900;2023-04-03T06:04:41;102694.63;;;2.24
37452;BMP280;23314;51.114;6.900;2023-04-03T06:07:06;102698.44;;;2.32
37452;BMP280;23314;51.114;6.900;2023-04-03T06:09:32;102701.16;;;2.41
37452;BMP280;23314;51.114;6.900;2023-04-03T06:11:58;102700.22;;;2.51
37452;BMP280;23314;51.114;6.900;2023-04-03T06:14:25;102703.22;;;2.58
37452;BMP280;23314;51.114;6.900;2023-04-03T06:16:51;102702.56;;;2.66
37452;BMP280;23314;51.114;6.900;2023-04-03T06:19:17;102701.38;;;2.72
37452;BMP280;23314;51.114;6.900;2023-04-03T06:21:42;102703.31;;;2.81
37452;BMP280;23314;51.114;6.900;2023-04-03T06:24:08;102703.41;;;2.89
37452;BMP280;23314;51.114;6.900;2023-04-03T06:26:34;102702.22;;;2.96
37452;BMP280;23314;51.114;6.900;2023-04-03T06:29:00;102704.44;;;3.02
37452;BMP280;23314;51.114;6.900;2023-04-03T06:31:25;102705.63;;;3.10
37452;BMP280;23314;51.114;6.900;2023-04-03T06:33:51;102705.22;;;3.17
37452;BMP280;23314;51.114;6.900;2023-04-03T06:36:18;102698.47;;;3.25
37452;BMP280;23314;51.114;6.900;2023-04-03T06:38:47;102699.91;;;3.31
37452;BMP280;23314;51.114;6.900;2023-04-03T06:41:13;102698.41;;;3.39
37452;BMP280;23314;51.114;6.900;2023-04-03T06:43:38;102699.56;;;3.46
37452;BMP280;23314;51.114;6.900;2023-04-03T06:46:03;102696.94;;;3.55
37452;BMP280;23314;51.114;6.900;2023-04-03T06:48:29;102697.31;;;3.62
37452;BMP280;23314;51.114;6.900;2023-04-03T06:50:54;102700.03;;;3.71
37452;BMP280;23314;51.114;6.900;2023-04-03T06:53:20;102700.09;;;3.80
37452;BMP280;23314;51.114;6.900;2023-04-03T06:55:46;102698.28;;;3.89
37452;BMP280;23314;51.114;6.900;2023-04-03T06:58:12;102705.16;;;3.99
37452;BMP280;23314;51.114;6.900;2023-04-03T07:00:38;102699.91;;;4.08
37452;BMP280;23314;51.114;6.900;2023-04-03T07:03:04;102703.38;;;4.17
37452;BMP280;23314;51.114;6.900;2023-04-03T07:05:29;102710.25;;;4.27
37452;BMP280;23314;51.114;6.900;2023-04-03T07:07:56;102707.66;;;4.36
37452;BMP280;23314;51.114;6.900;2023-04-03T07:10:23;102699.88;;;4.48
37452;BMP280;23314;51.114;6.900;2023-04-03T07:12:48;102708.31;;;4.59
37452;BMP280;23314;51.114;6.900;2023-04-03T07:15:13;102716.72;;;4.70
37452;BMP280;23314;51.114;6.900;2023-04-03T07:17:39;102720.19;;;4.79
37452;BMP280;23314;51.114;6.900;2023-04-03T07:20:05;102713.06;;;4.88
37452;BMP280;23314;51.114;6.900;2023-04-03T07:22:31;102725.69;;;5.00
37452;BMP280;23314;51.114;6.900;2023-04-03T07:24:57;102726.44;;;5.10
37452;BMP280;23314;51.114;6.900;2023-04-03T07:27:23;102725.34;;;5.19
37452;BMP280;23314;51.114;6.900;2023-04-03T07:29:50;102728.78;;;5.29
37452;BMP280;23314;51.114;6.900;2023-04-03T07:32:16;102725.34;;;5.37
37452;BMP280;23314;51.114;6.900;2023-04-03T07:34:41;102736.09;;;5.49
37452;BMP280;23314;51.114;6.900;2023-04-03T07:37:06;102728.44;;;5.57
37452;BMP280;23314;51.114;6.900;2023-04-03T07:39:32;102732.34;;;5.59
37452;BMP280;23314;51.114;6.900;2023-04-03T07:41:57;102733.41;;;5.67
37452;BMP280;23314;51.114;6.900;2023-04-03T07:44:23;102735.88;;;5.72
37452;BMP280;23314;51.114;6.900;2023-04-03T07:46:49;102747.41;;;5.76
37452;BMP280;23314;51.114;6.900;2023-04-03T07:49:16;102741.03;;;5.77
37452;BMP280;23314;51.114;6.900;2023-04-03T07:51:43;102735.88;;;5.81
37452;BMP280;23314;51.114;6.900;2023-04-03T07:54:08;102740.56;;;5.84
37452;BMP280;23314;51.114;6.900;2023-04-03T07:56:34;102740.97;;;5.95
37452;BMP280;23314;51.114;6.900;2023-04-03T07:58:59;102744.25;;;6.01
37452;BMP280;23314;51.114;6.900;2023-04-03T08:01:25;102740.94;;;6.12
37452;BMP280;23314;51.114;6.900;2023-04-03T08:03:51;102739.47;;;6.24
37452;BMP280;23314;51.114;6.900;2023-04-03T08:06:16;102739.13;;;6.34
37452;BMP280;23314;51.114;6.900;2023-04-03T08:08:42;102747.00;;;6.43
37452;BMP280;23314;51.114;6.900;2023-04-03T08:11:07;102744.78;;;6.54
37452;BMP280;23314;51.114;6.900;2023-04-03T08:13:34;102736.63;;;6.59
37452;BMP280;23314;51.114;6.900;2023-04-03T08:16:11;102741.13;;;6.67
37452;BMP280;23314;51.114;6.900;2023-04-03T08:18:37;102740.88;;;6.81
37452;BMP280;23314;51.114;6.900;2023-04-03T08:21:08;102742.16;;;6.96
37452;BMP280;23314;51.114;6.900;2023-04-03T08:23:33;102750.22;;;7.08
37452;BMP280;23314;51.114;6.900;2023-04-03T08:25:59;102753.53;;;7.18
37452;BMP280;23314;51.114;6.900;2023-04-03T08:28:25;102752.44;;;7.19
37452;BMP280;23314;51.114;6.900;2023-04-03T08:30:50;102743.28;;;7.29
37452;BMP280;23314;51.114;6.900;2023-04-03T08:33:16;102750.22;;;7.42
37452;BMP280;23314;51.114;6.900;2023-04-03T08:35:41;102735.94;;;7.47
37452;BMP280;23314;51.114;6.900;2023-04-03T08:38:07;102739.78;;;7.49
37452;BMP280;23314;51.114;6.900;2023-04-03T08:40:33;102741.50;;;7.54
37452;BMP280;23314;51.114;6.900;2023-04-03T08:45:58;102739.41;;;7.72
37452;BMP280;23314;51.114;6.900;2023-04-03T08:48:36;102738.09;;;7.78
37452;BMP280;23314;51.114;6.900;2023-04-03T08:51:05;102744.28;;;7.82
37452;BMP280;23314;51.114;6.900;2023-04-03T08:53:40;102736.44;;;7.86
37452;BMP280;23314;51.114;6.900;2023-04-03T08:56:08;102737.09;;;7.95
37452;BMP280;23314;51.114;6.900;2023-04-03T08:58:47;102737.09;;;7.95
37452;BMP280;23314;51.114;6.900;2023-04-03T09:03:46;102749.63;;;8.07
37452;BMP280;23314;51.114;6.900;2023-04-03T09:06:29;102748.19;;;8.10
37452;BMP280;23314;51.114;6.900;2023-04-03T09:12:04;102745.63;;;8.26
37452;BMP280;23314;51.114;6.900;2023-04-03T09:22:43;102748.72;;;8.28
37452;BMP280;23314;51.114;6.900;2023-04-03T09:27:44;102758.06;;;8.34
37452;BMP280;23314;51.114;6.900;2023-04-03T09:30:14;102752.50;;;8.39
37452;BMP280;23314;51.114;6.900;2023-04-03T09:32:40;102756.81;;;8.44
37452;BMP280;23314;51.114;6.900;2023-04-03T09:35:16;102756.47;;;8.45
37452;BMP280;23314;51.114;6.900;2023-04-03T09:37:44;102741.50;;;8.53
37452;BMP280;23314;51.114;6.900;2023-04-03T09:42:59;102748.56;;;8.61
37452;BMP280;23314;51.114;6.900;2023-04-03T09:45:33;102744.44;;;8.76
37452;BMP280;23314;51.114;6.900;2023-04-03T09:48:08;102733.66;;;8.85
37452;BMP280;23314;51.114;6.900;2023-04-03T09:50:35;102730.09;;;8.81
37452;BMP280;23314;51.114;6.900;2023-04-03T09:53:06;102744.97;;;8.82
37452;BMP280;23314;51.114;6.900;2023-04-03T09:55:32;102749.19;;;8.83
37452;BMP280;23314;51.114;6.900;2023-04-03T09:58:24;102735.69;;;8.76
37452;BMP280;23314;51.114;6.900;2023-04-03T10:00:55;102737.31;;;8.80
37452;BMP280;23314;51.114;6.900;2023-04-03T10:03:25;102731.78;;;8.86
37452;BMP280;23314;51.114;6.900;2023-04-03T10:05:51;102727.91;;;8.99
37452;BMP280;23314;51.114;6.900;2023-04-03T10:08:23;102731.75;;;9.14
37452;BMP280;23314;51.114;6.900;2023-04-03T10:11:06;102733.31;;;9.15
37452;BMP280;23314;51.114;6.900;2023-04-03T10:13:32;102740.41;;;9.11
37452;BMP280;23314;51.114;6.900;2023-04-03T10:16:06;102722.56;;;9.11
37452;BMP280;23314;51.114;6.900;2023-04-03T10:18:46;102721.19;;;9.18
37452;BMP280;23314;51.114;6.900;2023-04-03T10:21:44;102706.69;;;9.31
37452;BMP280;23314;51.114;6.900;2023-04-03T10:26:48;102727.66;;;9.48
37452;BMP280;23314;51.114;6.900;2023-04-03T10:29:25;102718.38;;;9.58
37452;BMP280;23314;51.114;6.900;2023-04-03T10:31:59;102711.75;;;9.68
37452;BMP280;23314;51.114;6.900;2023-04-03T10:34:39;102708.47;;;9.75
37452;BMP280;23314;51.114;6.900;2023-04-03T10:37:34;102710.56;;;9.82
37452;BMP280;23314;51.114;6.900;2023-04-03T10:42:50;102703.31;;;9.82
37452;BMP280;23314;51.114;6.900;2023-04-03T10:45:26;102705.72;;;9.87
37452;BMP280;23314;51.114;6.900;2023-04-03T10:48:15;102703.81;;;9.88
37452;BMP280;23314;51.114;6.900;2023-04-03T10:53:36;102705.75;;;10.07
37452;BMP280;23314;51.114;6.900;2023-04-03T10:58:51;102707.25;;;10.24
37452;BMP280;23314;51.114;6.900;2023-04-03T11:01:22;102697.44;;;10.28
37452;BMP280;23314;51.114;6.900;2023-04-03T11:03:53;102691.53;;;10.38
37452;BMP280;23314;51.114;6.900;2023-04-03T11:06:21;102692.41;;;10.46
37452;BMP280;23314;51.114;6.900;2023-04-03T11:08:53;102691.31;;;10.47
37452;BMP280;23314;51.114;6.900;2023-04-03T11:11:26;102684.03;;;10.44
37452;BMP280;23314;51.114;6.900;2023-04-03T11:13:58;102682.81;;;10.41
37452;BMP280;23314;51.114;6.900;2023-04-03T11:16:30;102679.63;;;10.32
37452;BMP280;23314;51.114;6.900;2023-04-03T11:19:03;102677.56;;;10.25
37452;BMP280;23314;51.114;6.900;2023-04-03T11:21:37;102675.91;;;10.37
37452;BMP280;23314;51.114;6.900;2023-04-03T11:24:16;102672.28;;;10.49
37452;BMP280;23314;51.114;6.900;2023-04-03T11:26:42;102674.38;;;10.59
37452;BMP280;23314;51.114;6.900;2023-04-03T11:29:14;102673.31;;;10.64
37452;BMP280;23314;51.114;6.900;2023-04-03T11:31:43;102666.50;;;10.66
37452;BMP280;23314;51.114;6.900;2023-04-03T11:34:26;102663.97;;;10.73
37452;BMP280;23314;51.114;6.900;2023-04-03T11:36:59;102665.06;;;10.69
37452;BMP280;23314;51.114;6.900;2023-04-03T11:39:31;102668.00;;;10.64
37452;BMP280;23314;51.114;6.900;2023-04-03T11:42:15;102662.41;;;10.72
37452;BMP280;23314;51.114;6.900;2023-04-03T11:44:41;102655.25;;;10.76
37452;BMP280;23314;51.114;6.900;2023-04-03T11:47:09;102661.44;;;10.81
37452;BMP280;23314;51.114;6.900;2023-04-03T11:50:03;102645.41;;;10.81
37452;BMP280;23314;51.114;6.900;2023-04-03T11:58:13;102633.44;;;10.94
37452;BMP280;23314;51.114;6.900;2023-04-03T12:01:06;102638.03;;;10.97
37452;BMP280;23314;51.114;6.900;2023-04-03T12:16:33;102617.53;;;11.28
37452;BMP280;23314;51.114;6.900;2023-04-03T12:29:25;102603.75;;;11.53
37452;BMP280;23314;51.114;6.900;2023-04-03T12:37:46;102599.13;;;11.50
37452;BMP280;23314;51.114;6.900;2023-04-03T12:40:30;102602.63;;;11.54
37452;BMP280;23314;51.114;6.900;2023-04-03T12:46:14;102603.97;;;11.44
37452;BMP280;23314;51.114;6.900;2023-04-03T12:51:13;102601.56;;;11.32
37452;BMP280;23314;51.114;6.900;2023-04-03T12:53:39;102593.16;;;11.33
37452;BMP280;23314;51.114;6.900;2023-04-03T12:56:20;102586.38;;;11.39
37452;BMP280;23314;51.114;6.900;2023-04-03T12:58:47;102558.22;;;11.46
37452;BMP280;23314;51.114;6.900;2023-04-03T13:01:15;102585.41;;;11.51
37452;BMP280;23314;51.114;6.900;2023-04-03T13:03:48;102586.63;;;11.57
37452;BMP280;23314;51.114;6.900;2023-04-03T13:06:19;102584.34;;;11.60
37452;BMP280;23314;51.114;6.900;2023-04-03T13:08:57;102579.06;;;11.63
37452;BMP280;23314;51.114;6.900;2023-04-03T13:11:24;102579.00;;;11.60
37452;BMP280;23314;51.114;6.900;2023-04-03T13:14:17;102575.00;;;11.46
37452;BMP280;23314;51.114;6.900;2023-04-03T13:16:53;102566.78;;;11.59
37452;BMP280;23314;51.114;6.900;2023-04-03T13:19:19;102570.63;;;11.61
37452;BMP280;23314;51.114;6.900;2023-04-03T13:21:44;102551.47;;;11.55
37452;BMP280;23314;51.114;6.900;2023-04-03T13:24:11;102564.47;;;11.57
37452;BMP280;23314;51.114;6.900;2023-04-03T13:26:37;102559.06;;;11.53
37452;BMP280;23314;51.114;6.900;2023-04-03T13:29:06;102560.59;;;11.54
37452;BMP280;23314;51.114;6.900;2023-04-03T13:31:38;102552.91;;;11.49
37452;BMP280;23314;51.114;6.900;2023-04-03T13:34:16;102569.75;;;11.50
37452;BMP280;23314;51.114;6.900;2023-04-03T13:36:55;102557.91;;;11.51
37452;BMP280;23314;51.114;6.900;2023-04-03T13:39:24;102562.00;;;11.41
37452;BMP280;23314;51.114;6.900;2023-04-03T13:41:53;102550.06;;;11.35
37452;BMP280;23314;51.114;6.900;2023-04-03T13:46:48;102561.19;;;11.40
37452;BMP280;23314;51.114;6.900;2023-04-03T13:49:21;102553.31;;;11.51
37452;BMP280;23314;51.114;6.900;2023-04-03T13:51:48;102563.06;;;11.67
37452;BMP280;23314;51.114;6.900;2023-04-03T13:54:29;102552.75;;;11.69
37452;BMP280;23314;51.114;6.900;2023-04-03T13:56:57;102544.34;;;11.67
37452;BMP280;23314;51.114;6.900;2023-04-03T13:59:31;102550.50;;;11.71
37452;BMP280;23314;51.114;6.900;2023-04-03T14:04:56;102542.00;;;11.62
37452;BMP280;23314;51.114;6.900;2023-04-03T14:07:25;102530.50;;;11.57
37452;BMP280;23314;51.114;6.900;2023-04-03T14:09:52;102526.38;;;11.64
37452;BMP280;23314;51.114;6.900;2023-04-03T14:14:52;102528.53;;;11.54
37452;BMP280;23314;51.114;6.900;2023-04-03T14:17:20;102534.41;;;11.67
37452;BMP280;23314;51.114;6.900;2023-04-03T14:19:48;102526.94;;;11.84
37452;BMP280;23314;51.114;6.900;2023-04-03T14:22:17;102526.19;;;11.83
37452;BMP280;23314;51.114;6.900;2023-04-03T14:24:43;102521.16;;;11.78
37452;BMP280;23314;51.114;6.900;2023-04-03T14:27:19;102512.00;;;11.79
37452;BMP280;23314;51.114;6.900;2023-04-03T14:29:47;102515.81;;;11.82
37452;BMP280;23314;51.114;6.900;2023-04-03T14:32:14;102508.19;;;11.80
37452;BMP280;23314;51.114;6.900;2023-04-03T14:34:41;102499.78;;;11.82
37452;BMP280;23314;51.114;6.900;2023-04-03T14:37:13;102502.81;;;11.77
37452;BMP280;23314;51.114;6.900;2023-04-03T14:39:39;102498.22;;;11.73
37452;BMP280;23314;51.114;6.900;2023-04-03T14:42:05;102493.63;;;11.74
37452;BMP280;23314;51.114;6.900;2023-04-03T14:44:31;102496.66;;;11.72
37452;BMP280;23314;51.114;6.900;2023-04-03T14:46:56;102492.50;;;11.79
37452;BMP280;23314;51.114;6.900;2023-04-03T14:49:26;102491.75;;;11.78
37452;BMP280;23314;51.114;6.900;2023-04-03T14:51:52;102500.94;;;11.81
37452;BMP280;23314;51.114;6.900;2023-04-03T14:54:21;102490.94;;;11.74
37452;BMP280;23314;51.114;6.900;2023-04-03T14:56:53;102490.91;;;11.70
37452;BMP280;23314;51.114;6.900;2023-04-03T14:59:18;102497.06;;;11.74
37452;BMP280;23314;51.114;6.900;2023-04-03T15:01:46;102489.78;;;11.75
37452;BMP280;23314;51.114;6.900;2023-04-03T15:04:16;102497.81;;;11.75
37452;BMP280;23314;51.114;6.900;2023-04-03T15:06:43;102488.19;;;11.67
37452;BMP280;23314;51.114;6.900;2023-04-03T15:11:40;102490.06;;;11.63
37452;BMP280;23314;51.114;6.900;2023-04-03T15:14:05;102474.78;;;11.63
37452;BMP280;23314;51.114;6.900;2023-04-03T15:16:30;102475.91;;;11.62
37452;BMP280;23314;51.114;6.900;2023-04-03T15:18:56;102478.59;;;11.62
37452;BMP280;23314;51.114;6.900;2023-04-03T15:21:21;102474.38;;;11.61
37452;BMP280;23314;51.114;6.900;2023-04-03T15:23:46;102483.94;;;11.62
37452;BMP280;23314;51.114;6.900;2023-04-03T15:26:12;102484.31;;;11.61
37452;BMP280;23314;51.114;6.900;2023-04-03T15:28:39;102490.00;;;11.59
37452;BMP280;23314;51.114;6.900;2023-04-03T15:31:06;102490.75;;;11.56
37452;BMP280;23314;51.114;6.900;2023-04-03T15:33:32;102485.03;;;11.57
37452;BMP280;23314;51.114;6.900;2023-04-03T15:35:57;102490.41;;;11.57
37452;BMP280;23314;51.114;6.900;2023-04-03T15:38:22;102487.31;;;11.55